Time;durP1;ratioP1;P1;durP2;ratioP2;P2;SDS_P1;SDS_P2;PMS_P1;PMS_P2;Temp;Humidity;BMP_temperature;BMP_pressure;BME280_temperature;BME280_humidity;BME280_pressure;Samples;Min_cycle;Max_cycle;Signal;HPM_P1;HPM_P2
2023/07/28 00:02:16;;;;;;;12.27;4.57;;;;;;;;;;5225594;28;20103;-72
2023/07/28 00:04:46;;;;;;;8.07;4.60;;;;;;;;;;5224431;28;20025;-72
2023/07/28 00:07:17;;;;;;;7.60;4.90;;;;;;;;;;5223262;28;20025;-72
2023/07/28 00:09:48;;;;;;;8.77;4.57;;;;;;;;;;5225422;28;20517;-72
2023/07/28 00:12:18;;;;;;;9.52;4.95;;;;;;;;;;5225518;28;20017;-72
2023/07/28 00:14:48;;;;;;;7.97;5.20;;;;;;;;;;5225421;28;20059;-72
2023/07/28 00:17:19;;;;;;;10.73;5.03;;;;;;;;;;5224519;28;20028;-72
2023/07/28 00:19:49;;;;;;;10.68;5.07;;;;;;;;;;5225630;28;20044;-72
2023/07/28 00:22:19;;;;;;;8.30;4.97;;;;;;;;;;5225462;28;20032;-72
2023/07/28 00:24:50;;;;;;;13.55;5.90;;;;;;;;;;5225160;28;20037;-72
2023/07/28 00:27:20;;;;;;;9.52;5.60;;;;;;;;;;5224775;28;20484;-72
2023/07/28 00:29:50;;;;;;;11.55;5.20;;;;;;;;;;5222283;28;20344;-72
2023/07/28 00:32:20;;;;;;;15.57;5.22;;;;;;;;;;5213868;28;20056;-73
2023/07/28 00:34:51;;;;;;;13.85;5.70;;;;;;;;;;5225190;28;20116;-72
2023/07/28 00:37:21;;;;;;;16.63;5.85;;;;;;;;;;5224887;28;20466;-72
2023/07/28 00:39:51;;;;;;;10.07;5.35;;;;;;;;;;5224868;28;20021;-72
2023/07/28 00:42:22;;;;;;;12.98;5.75;;;;;;;;;;5224830;28;20025;-71
2023/07/28 00:44:52;;;;;;;12.57;5.65;;;;;;;;;;5224666;28;20489;-72
2023/07/28 00:47:22;;;;;;;9.77;5.60;;;;;;;;;;5224229;28;20032;-71
2023/07/28 00:49:53;;;;;;;12.32;5.38;;;;;;;;;;5224668;28;20032;-72
2023/07/28 00:52:23;;;;;;;8.02;5.28;;;;;;;;;;5224497;28;20036;-72
2023/07/28 00:54:53;;;;;;;14.73;6.13;;;;;;;;;;5224502;28;20029;-72
2023/07/28 00:57:24;;;;;;;13.88;6.15;;;;;;;;;;5224363;28;20025;-72
2023/07/28 00:59:54;;;;;;;12.13;6.88;;;;;;;;;;5224795;28;20360;-72
2023/07/28 01:02:25;;;;;;;12.10;5.95;;;;;;;;;;5224834;28;20036;-73
2023/07/28 01:04:55;;;;;;;14.40;6.78;;;;;;;;;;5224795;28;20032;-71
2023/07/28 01:07:43;;;;;;;14.20;6.93;;;;;;;;;;5223766;28;20017;-72
2023/07/28 01:10:18;;;;;;;14.38;7.90;;;;;;;;;;5224537;28;20501;-72
2023/07/28 01:12:49;;;;;;;15.52;6.43;;;;;;;;;;5224625;28;20145;-72
2023/07/28 01:15:19;;;;;;;12.98;6.90;;;;;;;;;;5223144;28;20184;-72
2023/07/28 01:17:50;;;;;;;11.90;6.60;;;;;;;;;;5224018;28;20089;-72
2023/07/28 01:20:23;;;;;;;13.88;7.30;;;;;;;;;;5224124;28;20387;-72
2023/07/28 01:23:12;;;;;;;17.58;6.97;;;;;;;;;;5224282;28;20112;-72
2023/07/28 01:25:43;;;;;;;14.13;6.55;;;;;;;;;;5211925;28;20029;-72
2023/07/28 01:28:15;;;;;;;12.85;6.53;;;;;;;;;;5223618;28;20434;-72
2023/07/28 01:30:45;;;;;;;13.07;7.03;;;;;;;;;;5224272;28;20424;-72
2023/07/28 01:33:16;;;;;;;20.67;6.43;;;;;;;;;;5224136;28;20017;-72
2023/07/28 01:35:46;;;;;;;16.08;6.35;;;;;;;;;;5223879;28;20017;-72
2023/07/28 01:38:16;;;;;;;12.27;6.50;;;;;;;;;;5223818;28;20052;-72
2023/07/28 01:40:47;;;;;;;11.23;6.30;;;;;;;;;;5223597;28;20025;-72
2023/07/28 01:43:17;;;;;;;10.90;5.50;;;;;;;;;;5223811;28;20062;-72
2023/07/28 01:45:47;;;;;;;14.57;6.28;;;;;;;;;;5223228;28;20028;-72
2023/07/28 01:48:18;;;;;;;13.13;5.72;;;;;;;;;;5223582;28;20017;-72
2023/07/28 01:50:48;;;;;;;12.80;5.72;;;;;;;;;;5223656;28;20005;-72
2023/07/28 01:53:18;;;;;;;11.38;5.55;;;;;;;;;;5223320;28;20058;-72
2023/07/28 01:55:49;;;;;;;13.52;6.10;;;;;;;;;;5221759;28;20021;-72
2023/07/28 01:58:19;;;;;;;13.32;5.97;;;;;;;;;;5223327;28;20025;-72
2023/07/28 02:00:50;;;;;;;15.93;5.88;;;;;;;;;;5223773;28;20405;-72
2023/07/28 02:03:20;;;;;;;12.25;5.75;;;;;;;;;;5223221;28;20131;-72
2023/07/28 02:05:50;;;;;;;12.80;6.78;;;;;;;;;;5222184;28;20025;-72
2023/07/28 02:08:22;;;;;;;11.27;5.70;;;;;;;;;;5223510;28;20045;-72
2023/07/28 02:10:53;;;;;;;11.00;6.15;;;;;;;;;;5222837;28;20025;-72
2023/07/28 02:13:23;;;;;;;14.38;5.75;;;;;;;;;;5223199;28;20091;-72
2023/07/28 02:15:53;;;;;;;13.15;6.40;;;;;;;;;;5222617;28;20726;-71
2023/07/28 02:18:24;;;;;;;12.30;5.55;;;;;;;;;;5222446;28;20040;-72
2023/07/28 02:20:54;;;;;;;9.13;5.25;;;;;;;;;;5223343;28;20021;-72
2023/07/28 02:23:24;;;;;;;12.45;5.40;;;;;;;;;;5222921;28;20029;-71
2023/07/28 02:25:55;;;;;;;12.57;5.95;;;;;;;;;;5222348;28;20017;-72
2023/07/28 02:28:25;;;;;;;12.05;6.10;;;;;;;;;;5222750;28;20392;-72
2023/07/28 02:30:55;;;;;;;17.73;6.15;;;;;;;;;;5209563;28;20108;-72
2023/07/28 02:33:29;;;;;;;13.63;5.85;;;;;;;;;;5222159;28;20482;-72
2023/07/28 02:35:59;;;;;;;13.02;4.65;;;;;;;;;;5222337;28;20363;-72
2023/07/28 02:38:29;;;;;;;12.25;6.32;;;;;;;;;;5222940;28;20021;-72
2023/07/28 02:41:00;;;;;;;11.57;5.93;;;;;;;;;;5222760;28;20017;-72
2023/07/28 02:43:31;;;;;;;9.48;5.68;;;;;;;;;;5222521;28;20037;-72
2023/07/28 02:46:01;;;;;;;13.88;5.97;;;;;;;;;;5222105;28;20021;-72
2023/07/28 02:48:31;;;;;;;12.88;6.50;;;;;;;;;;5222942;28;20017;-72
2023/07/28 02:51:02;;;;;;;11.07;5.78;;;;;;;;;;5222894;28;20141;-72
2023/07/28 02:53:32;;;;;;;12.32;5.85;;;;;;;;;;5223395;28;20056;-72
2023/07/28 02:56:02;;;;;;;11.38;5.20;;;;;;;;;;5221945;28;20108;-71
2023/07/28 02:58:32;;;;;;;11.88;5.13;;;;;;;;;;5223047;28;20031;-72
2023/07/28 03:01:03;;;;;;;10.40;5.30;;;;;;;;;;5222569;28;20048;-72
2023/07/28 03:03:33;;;;;;;10.00;5.50;;;;;;;;;;5222904;28;20036;-72
2023/07/28 03:06:04;;;;;;;10.82;5.00;;;;;;;;;;5221816;28;20021;-72
2023/07/28 03:08:34;;;;;;;11.32;5.28;;;;;;;;;;5222163;28;20406;-72
2023/07/28 03:11:04;;;;;;;12.38;5.50;;;;;;;;;;5222402;28;20016;-72
2023/07/28 03:13:35;;;;;;;11.80;4.82;;;;;;;;;;5222435;28;20013;-72
2023/07/28 03:16:05;;;;;;;12.30;5.22;;;;;;;;;;5220679;28;20104;-72
2023/07/28 03:18:35;;;;;;;8.85;4.28;;;;;;;;;;5221903;28;20094;-71
2023/07/28 03:21:06;;;;;;;14.90;5.18;;;;;;;;;;5222156;28;20021;-72
2023/07/28 03:23:36;;;;;;;15.50;5.55;;;;;;;;;;5222288;28;20450;-72
2023/07/28 03:26:06;;;;;;;9.88;4.75;;;;;;;;;;5221717;28;20032;-72
2023/07/28 03:28:37;;;;;;;13.55;5.13;;;;;;;;;;5222089;28;20022;-72
2023/07/28 03:31:07;;;;;;;15.15;6.00;;;;;;;;;;5221964;28;20654;-72
2023/07/28 03:33:37;;;;;;;12.88;4.95;;;;;;;;;;5222654;28;20096;-72
2023/07/28 03:36:08;;;;;;;13.57;5.05;;;;;;;;;;5221748;28;20535;-72
2023/07/28 03:38:38;;;;;;;12.23;4.72;;;;;;;;;;5222339;28;20037;-72
2023/07/28 03:41:09;;;;;;;13.75;5.07;;;;;;;;;;5223408;28;20017;-72
2023/07/28 03:43:39;;;;;;;10.82;5.10;;;;;;;;;;5225662;28;20017;-71
2023/07/28 03:46:10;;;;;;;13.75;5.80;;;;;;;;;;5225221;28;20083;-72
2023/07/28 03:48:40;;;;;;;7.80;4.18;;;;;;;;;;5225897;28;20040;-72
2023/07/28 03:51:10;;;;;;;10.95;5.00;;;;;;;;;;5226169;28;20021;-71
2023/07/28 03:53:41;;;;;;;13.38;4.93;;;;;;;;;;5225882;28;20025;-72
2023/07/28 03:56:11;;;;;;;15.55;5.20;;;;;;;;;;5224811;28;20021;-71
2023/07/28 03:58:41;;;;;;;13.15;4.78;;;;;;;;;;5225382;28;20078;-71
2023/07/28 04:01:11;;;;;;;8.15;4.78;;;;;;;;;;5225688;28;20081;-71
2023/07/28 04:03:42;;;;;;;11.18;5.72;;;;;;;;;;5225225;28;20037;-72
2023/07/28 04:06:12;;;;;;;12.23;5.20;;;;;;;;;;5225163;28;20028;-72
2023/07/28 04:08:42;;;;;;;10.63;5.15;;;;;;;;;;5224871;28;20021;-72
2023/07/28 04:11:13;;;;;;;13.90;5.38;;;;;;;;;;5225400;28;20016;-72
2023/07/28 04:13:43;;;;;;;12.10;4.95;;;;;;;;;;5225449;28;20028;-71
2023/07/28 04:16:13;;;;;;;15.45;5.18;;;;;;;;;;5224770;28;20090;-71
2023/07/28 04:18:43;;;;;;;17.52;5.60;;;;;;;;;;5225047;28;20028;-72
2023/07/28 04:21:14;;;;;;;11.73;5.43;;;;;;;;;;5225091;28;20387;-71
2023/07/28 04:23:44;;;;;;;11.98;5.30;;;;;;;;;;5225012;28;20126;-71
2023/07/28 04:26:14;;;;;;;10.45;5.63;;;;;;;;;;5224780;28;20111;-72
2023/07/28 04:28:45;;;;;;;13.40;6.00;;;;;;;;;;5224897;28;20025;-71
2023/07/28 04:31:15;;;;;;;16.45;6.25;;;;;;;;;;5212106;28;20072;-71
2023/07/28 04:33:45;;;;;;;19.00;7.18;;;;;;;;;;5224791;28;20090;-72
2023/07/28 04:36:16;;;;;;;18.10;7.82;;;;;;;;;;5224505;28;21615;-72
2023/07/28 04:38:46;;;;;;;20.95;7.72;;;;;;;;;;5224820;28;20029;-71
2023/07/28 04:41:16;;;;;;;14.75;7.22;;;;;;;;;;5224670;28;20028;-71
2023/07/28 04:43:46;;;;;;;22.05;8.15;;;;;;;;;;5224844;28;20096;-71
2023/07/28 04:46:17;;;;;;;24.17;8.13;;;;;;;;;;5223772;28;20036;-72
2023/07/28 04:48:47;;;;;;;22.15;9.13;;;;;;;;;;5224577;28;20360;-72
2023/07/28 04:51:17;;;;;;;28.73;9.13;;;;;;;;;;5224862;28;20074;-72
2023/07/28 04:53:48;;;;;;;23.27;8.23;;;;;;;;;;5223591;28;20550;-71
2023/07/28 04:56:18;;;;;;;20.55;8.35;;;;;;;;;;5224183;28;20025;-72
2023/07/28 04:58:48;;;;;;;27.00;8.45;;;;;;;;;;5223752;28;20524;-72
2023/07/28 05:01:18;;;;;;;21.02;8.50;;;;;;;;;;5224760;28;20122;-72
2023/07/28 05:03:49;;;;;;;23.55;8.55;;;;;;;;;;5224224;28;20036;-72
2023/07/28 05:06:19;;;;;;;20.15;8.18;;;;;;;;;;5223996;28;20079;-72
2023/07/28 05:08:49;;;;;;;19.38;7.68;;;;;;;;;;5224271;28;20433;-72
2023/07/28 05:11:20;;;;;;;18.48;7.47;;;;;;;;;;5223925;28;20013;-72
2023/07/28 05:13:50;;;;;;;19.05;7.55;;;;;;;;;;5224370;28;20124;-72
2023/07/28 05:16:20;;;;;;;22.60;8.48;;;;;;;;;;5222836;28;20478;-72
2023/07/28 05:18:51;;;;;;;17.92;7.15;;;;;;;;;;5223500;28;20025;-72
2023/07/28 05:21:21;;;;;;;15.45;6.82;;;;;;;;;;5223578;28;20027;-72
2023/07/28 05:23:52;;;;;;;17.48;6.80;;;;;;;;;;5223495;28;20540;-72
2023/07/28 05:26:22;;;;;;;13.50;6.65;;;;;;;;;;5221960;28;20057;-72
2023/07/28 05:28:52;;;;;;;17.08;7.38;;;;;;;;;;5223256;28;20489;-72
2023/07/28 05:31:23;;;;;;;12.68;5.95;;;;;;;;;;5220489;28;20036;-72
2023/07/28 05:33:53;;;;;;;16.20;6.50;;;;;;;;;;5218970;28;20098;-72
2023/07/28 05:36:24;;;;;;;13.38;6.40;;;;;;;;;;5218093;28;20032;-72
2023/07/28 05:38:56;;;;;;;13.43;6.13;;;;;;;;;;5220266;28;20017;-72
2023/07/28 05:41:26;;;;;;;13.65;5.97;;;;;;;;;;5222493;28;20025;-72
2023/07/28 05:43:56;;;;;;;12.50;5.57;;;;;;;;;;5223486;28;20025;-72
2023/07/28 05:46:27;;;;;;;15.60;6.18;;;;;;;;;;5223040;28;20478;-72
2023/07/28 05:48:57;;;;;;;13.32;6.70;;;;;;;;;;5209629;28;20029;-72
2023/07/28 05:51:27;;;;;;;11.40;5.22;;;;;;;;;;5214722;28;20106;-72
2023/07/28 05:53:58;;;;;;;15.90;5.57;;;;;;;;;;5210642;28;20222;-72
2023/07/28 05:56:29;;;;;;;12.13;5.88;;;;;;;;;;5218981;28;20017;-72
2023/07/28 05:58:59;;;;;;;14.70;6.00;;;;;;;;;;5216962;28;20025;-72
2023/07/28 06:01:29;;;;;;;10.05;5.63;;;;;;;;;;5221448;28;20074;-72
2023/07/28 06:04:00;;;;;;;11.05;5.45;;;;;;;;;;5221904;28;20039;-72
2023/07/28 06:06:30;;;;;;;9.75;5.00;;;;;;;;;;5221230;28;20040;-72
2023/07/28 06:09:00;;;;;;;9.20;4.57;;;;;;;;;;5221373;28;20291;-72
2023/07/28 06:11:31;;;;;;;9.32;4.90;;;;;;;;;;5221324;28;20104;-72
2023/07/28 06:14:01;;;;;;;7.35;3.85;;;;;;;;;;5221660;28;20597;-72
2023/07/28 06:16:31;;;;;;;7.28;3.60;;;;;;;;;;5220633;28;20316;-72
2023/07/28 06:19:02;;;;;;;7.78;3.75;;;;;;;;;;5220474;28;20394;-72
2023/07/28 06:21:32;;;;;;;7.22;2.90;;;;;;;;;;5221655;28;20021;-72
2023/07/28 06:24:02;;;;;;;7.93;3.17;;;;;;;;;;5221564;28;20032;-72
2023/07/28 06:26:33;;;;;;;8.38;3.60;;;;;;;;;;5220508;28;20470;-72
2023/07/28 06:29:03;;;;;;;5.38;2.75;;;;;;;;;;5221905;28;20056;-72
2023/07/28 06:31:33;;;;;;;5.55;2.60;;;;;;;;;;5221641;28;20052;-72
2023/07/28 06:34:04;;;;;;;4.85;2.20;;;;;;;;;;5221883;28;20021;-72
2023/07/28 06:36:34;;;;;;;2.15;1.83;;;;;;;;;;5220682;28;20025;-72
2023/07/28 06:39:04;;;;;;;3.28;1.30;;;;;;;;;;5221594;28;20021;-72
2023/07/28 06:41:34;;;;;;;1.60;1.50;;;;;;;;;;5221475;28;20094;-71
2023/07/28 06:44:05;;;;;;;2.67;1.30;;;;;;;;;;5221620;28;20108;-71
2023/07/28 06:46:35;;;;;;;2.17;1.17;;;;;;;;;;5220530;28;20475;-72
2023/07/28 06:49:06;;;;;;;1.60;1.20;;;;;;;;;;5219651;28;20467;-72
2023/07/28 06:51:36;;;;;;;2.15;1.30;;;;;;;;;;5221569;28;20017;-72
2023/07/28 06:54:11;;;;;;;2.13;1.02;;;;;;;;;;5221641;28;20374;-71
2023/07/28 06:56:41;;;;;;;3.60;0.90;;;;;;;;;;5221220;28;20370;-72
2023/07/28 06:59:12;;;;;;;1.48;0.93;;;;;;;;;;5221453;28;20013;-72
2023/07/28 07:01:42;;;;;;;2.50;1.00;;;;;;;;;;5220408;28;20021;-72
2023/07/28 07:04:12;;;;;;;3.65;1.30;;;;;;;;;;5220896;28;20100;-72
2023/07/28 07:06:43;;;;;;;1.90;1.27;;;;;;;;;;5220506;28;20029;-72
2023/07/28 07:09:14;;;;;;;4.03;1.33;;;;;;;;;;5220738;28;20031;-72
2023/07/28 07:11:45;;;;;;;3.47;1.45;;;;;;;;;;5220618;28;20023;-71
2023/07/28 07:14:15;;;;;;;1.75;0.70;;;;;;;;;;5220481;28;20009;-72
2023/07/28 07:16:45;;;;;;;0.80;0.70;;;;;;;;;;5222051;28;20095;-72
2023/07/28 07:19:15;;;;;;;2.22;0.90;;;;;;;;;;5224896;28;20025;-72
2023/07/28 07:21:47;;;;;;;0.80;0.63;;;;;;;;;;5224596;28;20029;-72
2023/07/28 07:24:17;;;;;;;1.02;0.73;;;;;;;;;;5224604;28;20269;-72
2023/07/28 07:26:48;;;;;;;2.28;0.73;;;;;;;;;;5223199;28;20056;-72
2023/07/28 07:29:18;;;;;;;1.42;0.50;;;;;;;;;;5224536;28;20005;-72
2023/07/28 07:31:49;;;;;;;3.92;0.85;;;;;;;;;;5210404;28;20029;-72
2023/07/28 07:34:20;;;;;;;1.23;0.60;;;;;;;;;;5225511;28;20105;-72
2023/07/28 07:36:50;;;;;;;0.82;0.60;;;;;;;;;;5211252;28;20054;-72
2023/07/28 07:39:20;;;;;;;0.70;0.60;;;;;;;;;;5223342;28;20021;-72
2023/07/28 07:41:51;;;;;;;1.48;0.90;;;;;;;;;;5225175;28;20227;-73
2023/07/28 07:44:21;;;;;;;1.13;0.85;;;;;;;;;;5224967;28;20473;-72
2023/07/28 07:46:51;;;;;;;0.88;0.70;;;;;;;;;;5224430;28;20021;-73
2023/07/28 07:49:22;;;;;;;1.98;0.70;;;;;;;;;;5224857;28;20378;-73
2023/07/28 07:51:53;;;;;;;2.83;0.70;;;;;;;;;;5224998;28;20035;-73
2023/07/28 07:54:23;;;;;;;1.77;0.70;;;;;;;;;;5224738;28;20029;-73
2023/07/28 07:56:53;;;;;;;0.75;0.60;;;;;;;;;;5224332;28;20393;-72
2023/07/28 07:59:27;;;;;;;0.80;0.57;;;;;;;;;;5224414;28;20032;-73
2023/07/28 08:02:00;;;;;;;0.98;0.40;;;;;;;;;;5224292;28;20029;-73
2023/07/28 08:04:31;;;;;;;0.85;0.40;;;;;;;;;;5224563;28;20048;-73
2023/07/28 08:07:04;;;;;;;1.63;0.43;;;;;;;;;;5223930;28;20028;-73
2023/07/28 08:09:34;;;;;;;0.70;0.32;;;;;;;;;;5224486;28;20009;-72
2023/07/28 08:12:05;;;;;;;1.15;0.40;;;;;;;;;;5224426;28;20071;-73
2023/07/28 08:14:36;;;;;;;0.40;0.40;;;;;;;;;;5223149;28;20096;-73
2023/07/28 08:17:07;;;;;;;0.35;0.32;;;;;;;;;;5222152;28;20032;-73
2023/07/28 08:19:37;;;;;;;0.30;0.30;;;;;;;;;;5224510;28;20028;-73
2023/07/28 08:22:07;;;;;;;0.65;0.40;;;;;;;;;;5223497;28;20047;-73
2023/07/28 08:24:38;;;;;;;2.28;0.40;;;;;;;;;;5224071;28;20021;-73
2023/07/28 08:27:08;;;;;;;0.75;0.38;;;;;;;;;;5222261;28;20079;-73
2023/07/28 08:29:38;;;;;;;0.75;0.38;;;;;;;;;;5221994;28;20021;-73
2023/07/28 08:32:09;;;;;;;1.70;0.50;;;;;;;;;;5212855;28;20021;-73
2023/07/28 08:34:39;;;;;;;0.50;0.50;;;;;;;;;;5224484;28;20413;-73
2023/07/28 08:37:09;;;;;;;1.27;0.60;;;;;;;;;;5223331;28;20383;-73
2023/07/28 08:39:40;;;;;;;2.13;0.70;;;;;;;;;;5222390;28;20025;-73
2023/07/28 08:42:10;;;;;;;3.55;0.75;;;;;;;;;;5224195;28;20032;-72
2023/07/28 08:44:41;;;;;;;0.70;0.70;;;;;;;;;;5223664;28;20032;-72
2023/07/28 08:47:12;;;;;;;1.88;1.00;;;;;;;;;;5223361;28;20548;-73
2023/07/28 08:49:42;;;;;;;1.30;0.80;;;;;;;;;;5222349;28;20021;-72
2023/07/28 08:52:14;;;;;;;1.08;0.90;;;;;;;;;;5224003;28;20024;-72
2023/07/28 08:54:45;;;;;;;1.38;1.20;;;;;;;;;;5210444;28;20343;-73
2023/07/28 08:57:16;;;;;;;1.33;0.80;;;;;;;;;;5222735;28;20025;-72
2023/07/28 08:59:47;;;;;;;2.78;1.20;;;;;;;;;;5224826;28;20021;-73
2023/07/28 09:02:18;;;;;;;2.83;0.90;;;;;;;;;;5222609;28;20021;-73
2023/07/28 09:04:49;;;;;;;3.00;0.73;;;;;;;;;;5222698;28;20055;-73
2023/07/28 09:07:19;;;;;;;1.90;0.50;;;;;;;;;;5222457;28;20099;-72
2023/07/28 09:09:58;;;;;;;0.70;0.60;;;;;;;;;;5223532;28;20385;-72
2023/07/28 09:12:31;;;;;;;2.00;0.73;;;;;;;;;;5223603;28;20078;-73
2023/07/28 09:15:01;;;;;;;3.97;0.82;;;;;;;;;;5223284;28;20025;-73
2023/07/28 09:17:33;;;;;;;0.68;0.68;;;;;;;;;;5221479;28;20021;-73
2023/07/28 09:20:05;;;;;;;1.17;0.52;;;;;;;;;;5223385;28;20020;-72
2023/07/28 09:22:35;;;;;;;1.60;0.70;;;;;;;;;;5223322;28;20441;-72
2023/07/28 09:25:25;;;;;;;1.00;0.60;;;;;;;;;;5223453;28;20119;-73
2023/07/28 09:27:55;;;;;;;1.67;0.70;;;;;;;;;;5222367;28;20049;-72
2023/07/28 09:30:26;;;;;;;2.17;0.85;;;;;;;;;;5222694;28;20121;-72
2023/07/28 09:32:56;;;;;;;1.95;0.95;;;;;;;;;;5222972;28;20027;-72
2023/07/28 09:35:28;;;;;;;2.38;0.77;;;;;;;;;;5223013;28;20023;-72
2023/07/28 09:37:59;;;;;;;2.10;0.75;;;;;;;;;;5221766;28;20024;-72
2023/07/28 09:40:29;;;;;;;2.67;0.65;;;;;;;;;;5223005;28;20547;-72
2023/07/28 09:43:00;;;;;;;5.38;0.68;;;;;;;;;;5223113;28;20025;-72
2023/07/28 09:45:30;;;;;;;0.60;0.60;;;;;;;;;;5222885;28;20025;-72
2023/07/28 09:48:03;;;;;;;6.20;1.13;;;;;;;;;;5220756;28;20028;-72
2023/07/28 09:50:34;;;;;;;0.70;0.50;;;;;;;;;;5222032;28;20027;-72
2023/07/28 09:53:04;;;;;;;1.08;0.70;;;;;;;;;;5222390;28;20016;-72
2023/07/28 09:55:35;;;;;;;3.70;0.82;;;;;;;;;;5222081;28;20039;-72
2023/07/28 09:58:08;;;;;;;1.85;0.57;;;;;;;;;;5222405;28;20490;-73
2023/07/28 10:00:39;;;;;;;1.23;0.30;;;;;;;;;;5222037;28;20041;-72
2023/07/28 10:03:11;;;;;;;0.50;0.40;;;;;;;;;;5222028;28;20037;-72
2023/07/28 10:05:41;;;;;;;0.60;0.20;;;;;;;;;;5222029;28;20470;-72
2023/07/28 10:08:12;;;;;;;0.30;0.30;;;;;;;;;;5222167;28;20017;-72
2023/07/28 10:10:42;;;;;;;2.05;0.40;;;;;;;;;;5221981;28;20072;-73
2023/07/28 10:13:31;;;;;;;1.38;0.30;;;;;;;;;;5222156;28;20418;-73
2023/07/28 10:16:02;;;;;;;1.75;0.45;;;;;;;;;;5209911;28;20021;-73
2023/07/28 10:18:33;;;;;;;0.52;0.32;;;;;;;;;;5221574;28;20074;-72
2023/07/28 10:21:05;;;;;;;2.47;0.50;;;;;;;;;;5221680;28;20013;-73
2023/07/28 10:23:37;;;;;;;0.70;0.38;;;;;;;;;;5222076;28;20017;-73
2023/07/28 10:26:09;;;;;;;2.33;0.40;;;;;;;;;;5221244;28;20082;-73
2023/07/28 10:28:41;;;;;;;1.00;0.52;;;;;;;;;;5221654;28;20024;-73
2023/07/28 10:31:11;;;;;;;3.33;0.82;;;;;;;;;;5209119;28;20044;-73
2023/07/28 10:34:00;;;;;;;1.63;0.65;;;;;;;;;;5221948;28;20009;-73
2023/07/28 10:36:30;;;;;;;1.25;0.70;;;;;;;;;;5221181;28;20425;-72
2023/07/28 10:39:03;;;;;;;1.33;0.40;;;;;;;;;;5221769;28;20028;-73
2023/07/28 10:41:35;;;;;;;2.78;0.60;;;;;;;;;;5221776;28;20667;-72
2023/07/28 10:44:06;;;;;;;1.40;0.40;;;;;;;;;;5222333;28;20049;-73
2023/07/28 10:46:37;;;;;;;2.22;0.40;;;;;;;;;;5221032;28;20100;-73
2023/07/28 10:49:08;;;;;;;0.70;0.30;;;;;;;;;;5221721;28;20116;-73
2023/07/28 10:51:39;;;;;;;1.65;0.35;;;;;;;;;;5224107;28;20010;-73
2023/07/28 10:54:09;;;;;;;2.72;0.47;;;;;;;;;;5226146;28;20028;-73
2023/07/28 10:56:39;;;;;;;1.15;0.40;;;;;;;;;;5225348;28;20108;-73
2023/07/28 10:59:10;;;;;;;0.65;0.50;;;;;;;;;;5225433;28;20021;-72
2023/07/28 11:01:41;;;;;;;0.75;0.50;;;;;;;;;;5221519;28;20556;-73
2023/07/28 11:04:13;;;;;;;1.38;0.55;;;;;;;;;;5217213;28;20107;-73
2023/07/28 11:06:44;;;;;;;3.97;0.60;;;;;;;;;;5224019;28;20018;-73
2023/07/28 11:09:16;;;;;;;0.88;0.50;;;;;;;;;;5226646;28;20017;-73
2023/07/28 11:11:46;;;;;;;0.98;0.65;;;;;;;;;;5224729;28;20013;-73
2023/07/28 11:14:17;;;;;;;1.58;0.50;;;;;;;;;;5222843;28;20024;-72
2023/07/28 11:16:47;;;;;;;1.45;0.60;;;;;;;;;;5220574;28;20045;-73
2023/07/28 11:19:24;;;;;;;1.35;0.60;;;;;;;;;;5224285;28;20021;-72
2023/07/28 11:21:54;;;;;;;0.70;0.50;;;;;;;;;;5224739;28;20021;-73
2023/07/28 11:24:26;;;;;;;1.35;0.60;;;;;;;;;;5224680;28;20187;-72
2023/07/28 11:26:58;;;;;;;1.98;0.45;;;;;;;;;;5223145;28;20502;-72
2023/07/28 11:29:28;;;;;;;1.13;0.75;;;;;;;;;;5224442;28;20017;-73
2023/07/28 11:31:58;;;;;;;1.92;0.40;;;;;;;;;;5221735;28;20393;-73
2023/07/28 11:34:33;;;;;;;0.50;0.50;;;;;;;;;;5222698;28;20017;-73
2023/07/28 11:37:05;;;;;;;;;;;;;;;;;;5221841;28;20032;-73
2023/07/28 11:39:35;;;;;;;4.13;0.68;;;;;;;;;;5223227;28;19904;-72
2023/07/28 11:42:06;;;;;;;1.50;1.02;;;;;;;;;;5220052;28;20022;-73
2023/07/28 11:44:37;;;;;;;2.78;0.77;;;;;;;;;;5223893;28;20024;-72
2023/07/28 11:47:07;;;;;;;3.47;1.05;;;;;;;;;;5218355;28;20427;-73
2023/07/28 11:49:45;;;;;;;4.28;0.88;;;;;;;;;;5221581;28;20021;-72
2023/07/28 11:52:16;;;;;;;1.02;0.70;;;;;;;;;;5220843;28;20013;-72
2023/07/28 11:54:47;;;;;;;2.17;0.75;;;;;;;;;;5219519;28;20086;-73
2023/07/28 11:57:17;;;;;;;2.75;0.73;;;;;;;;;;5217538;28;20106;-73
2023/07/28 11:59:48;;;;;;;1.42;0.63;;;;;;;;;;5223336;28;20071;-73
2023/07/28 12:02:24;;;;;;;0.85;0.60;;;;;;;;;;5219989;28;20040;-72
2023/07/28 12:04:56;;;;;;;1.67;0.70;;;;;;;;;;5220081;28;20025;-72
2023/07/28 12:07:29;;;;;;;2.05;0.52;;;;;;;;;;5220062;28;20024;-73
2023/07/28 12:10:15;;;;;;;0.80;0.68;;;;;;;;;;5222770;28;20383;-73
2023/07/28 12:12:46;;;;;;;1.00;0.63;;;;;;;;;;5221758;28;20021;-73
2023/07/28 12:15:28;;;;;;;2.13;1.13;;;;;;;;;;5223115;28;20013;-73
2023/07/28 12:18:01;;;;;;;1.77;1.00;;;;;;;;;;5222973;28;20028;-73
2023/07/28 12:20:33;;;;;;;0.70;0.70;;;;;;;;;;5223361;28;20028;-73
2023/07/28 12:23:04;;;;;;;4.38;0.98;;;;;;;;;;5224237;28;20029;-72
2023/07/28 12:25:36;;;;;;;3.53;0.82;;;;;;;;;;5223526;28;20272;-73
2023/07/28 12:28:06;;;;;;;4.68;0.90;;;;;;;;;;5222365;28;20513;-73
2023/07/28 12:30:37;;;;;;;1.00;0.88;;;;;;;;;;5224072;28;20055;-72
2023/07/28 12:33:07;;;;;;;0.98;0.90;;;;;;;;;;5223096;28;20017;-73
2023/07/28 12:35:38;;;;;;;2.42;1.00;;;;;;;;;;5223599;28;20013;-73
2023/07/28 12:38:08;;;;;;;1.63;1.20;;;;;;;;;;5222672;28;20028;-73
2023/07/28 12:40:38;;;;;;;1.52;1.00;;;;;;;;;;5223305;28;20409;-73
2023/07/28 12:43:09;;;;;;;2.80;1.00;;;;;;;;;;5222961;28;20068;-73
2023/07/28 12:45:39;;;;;;;1.15;0.98;;;;;;;;;;5223402;28;20481;-73
2023/07/28 12:48:10;;;;;;;4.00;1.63;;;;;;;;;;5222752;28;20364;-73
2023/07/28 12:50:40;;;;;;;3.15;1.30;;;;;;;;;;5223388;28;20108;-73
2023/07/28 12:53:10;;;;;;;3.92;1.27;;;;;;;;;;5223403;28;20017;-73
2023/07/28 12:55:41;;;;;;;3.55;1.60;;;;;;;;;;5221995;28;20174;-72
2023/07/28 12:58:11;;;;;;;3.78;1.20;;;;;;;;;;5222358;28;20028;-73
2023/07/28 13:00:41;;;;;;;1.42;1.10;;;;;;;;;;5223057;28;20033;-73
2023/07/28 13:03:11;;;;;;;2.53;1.40;;;;;;;;;;5222988;28;20067;-73
2023/07/28 13:05:43;;;;;;;6.00;1.45;;;;;;;;;;5222540;28;20028;-73
2023/07/28 13:08:13;;;;;;;1.30;1.20;;;;;;;;;;5222321;28;20154;-73
2023/07/28 13:10:43;;;;;;;1.60;1.10;;;;;;;;;;5222873;28;20100;-73
2023/07/28 13:13:14;;;;;;;2.78;1.15;;;;;;;;;;5222803;28;20027;-73
2023/07/28 13:15:44;;;;;;;2.95;1.27;;;;;;;;;;5222043;28;20150;-73
2023/07/28 13:18:14;;;;;;;2.92;1.23;;;;;;;;;;5222417;28;20474;-73
2023/07/28 13:20:45;;;;;;;1.30;1.20;;;;;;;;;;5222958;28;20036;-73
2023/07/28 13:23:15;;;;;;;1.37;1.20;;;;;;;;;;5222809;28;20162;-73
2023/07/28 13:25:45;;;;;;;3.43;1.27;;;;;;;;;;5222296;28;20263;-73
2023/07/28 13:28:15;;;;;;;2.67;1.20;;;;;;;;;;5222269;28;20309;-72
2023/07/28 13:30:46;;;;;;;1.40;1.27;;;;;;;;;;5211915;28;20026;-73
2023/07/28 13:33:16;;;;;;;1.20;1.02;;;;;;;;;;5218593;28;20020;-72
2023/07/28 13:35:47;;;;;;;1.98;1.20;;;;;;;;;;5222356;28;20028;-73
2023/07/28 13:38:17;;;;;;;3.55;1.40;;;;;;;;;;5222302;28;20283;-73
2023/07/28 13:40:47;;;;;;;2.42;1.05;;;;;;;;;;5222982;28;20032;-73
2023/07/28 13:43:18;;;;;;;2.15;1.17;;;;;;;;;;5222491;28;20106;-73
2023/07/28 13:45:48;;;;;;;2.43;1.37;;;;;;;;;;5221615;28;20199;-73
2023/07/28 13:48:18;;;;;;;2.10;1.30;;;;;;;;;;5221726;28;20280;-72
2023/07/28 13:50:48;;;;;;;1.85;1.10;;;;;;;;;;5222266;28;20665;-73
2023/07/28 13:53:19;;;;;;;3.30;1.30;;;;;;;;;;5222563;28;20060;-73
2023/07/28 13:55:50;;;;;;;1.35;1.08;;;;;;;;;;5222054;28;20089;-72
2023/07/28 13:58:21;;;;;;;1.50;1.20;;;;;;;;;;5221493;28;20479;-72
2023/07/28 14:00:51;;;;;;;2.10;1.10;;;;;;;;;;5222042;28;20154;-72
2023/07/28 14:03:21;;;;;;;2.20;1.17;;;;;;;;;;5222268;28;20025;-72
2023/07/28 14:05:52;;;;;;;1.88;1.40;;;;;;;;;;5221704;28;20036;-72
2023/07/28 14:08:22;;;;;;;3.58;1.40;;;;;;;;;;5221109;28;20041;-72
2023/07/28 14:10:53;;;;;;;3.03;1.48;;;;;;;;;;5221500;28;20291;-72
2023/07/28 14:13:23;;;;;;;3.70;1.15;;;;;;;;;;5221221;28;20394;-72
2023/07/28 14:15:55;;;;;;;4.00;1.40;;;;;;;;;;5220002;28;20049;-72
2023/07/28 14:18:25;;;;;;;2.40;1.35;;;;;;;;;;5220754;28;20024;-73
2023/07/28 14:20:55;;;;;;;4.95;1.27;;;;;;;;;;5220202;28;20375;-72
2023/07/28 14:23:26;;;;;;;4.07;1.30;;;;;;;;;;5222425;28;20036;-72
2023/07/28 14:25:57;;;;;;;3.33;1.00;;;;;;;;;;5229959;28;20032;-72
2023/07/28 14:28:28;;;;;;;1.50;1.02;;;;;;;;;;5231796;28;20017;-72
2023/07/28 14:30:58;;;;;;;2.15;1.08;;;;;;;;;;5226976;28;20399;-72
2023/07/28 14:33:28;;;;;;;3.27;1.37;;;;;;;;;;5224226;28;20025;-72
2023/07/28 14:35:58;;;;;;;2.17;1.23;;;;;;;;;;5222937;28;20334;-72
2023/07/28 14:38:29;;;;;;;2.03;1.08;;;;;;;;;;5226414;28;20033;-72
2023/07/28 14:40:59;;;;;;;7.60;1.83;;;;;;;;;;5225426;28;20097;-72
2023/07/28 14:43:29;;;;;;;3.60;1.33;;;;;;;;;;5222669;28;20258;-72
2023/07/28 14:46:00;;;;;;;3.47;1.50;;;;;;;;;;5220114;28;20310;-71
2023/07/28 14:48:30;;;;;;;1.92;1.13;;;;;;;;;;5216531;28;20182;-72
2023/07/28 14:51:00;;;;;;;4.10;0.90;;;;;;;;;;5223739;28;20523;-72
2023/07/28 14:53:32;;;;;;;2.75;1.13;;;;;;;;;;5225411;28;20248;-72
2023/07/28 14:56:03;;;;;;;2.88;1.20;;;;;;;;;;5226012;28;20087;-71
2023/07/28 14:58:33;;;;;;;1.92;1.17;;;;;;;;;;5221712;28;20021;-72
2023/07/28 15:01:06;;;;;;;2.08;1.10;;;;;;;;;;5223316;28;20025;-72